sensor_id;sensor_type;location;lat;lon;timestamp;P1;P2;P0
86027;PMS7003;76602;42.958;21.888;2024-02-16T00:01:31;62.25;54.00;33.50
86027;PMS7003;76602;42.958;21.888;2024-02-16T00:03:56;54.75;48.00;30.00
86027;PMS7003;76602;42.958;21.888;2024-02-16T00:06:22;46.25;42.00;29.25
86027;PMS7003;76602;42.958;21.888;2024-02-16T00:08:48;54.75;47.25;31.00
86027;PMS7003;76602;42.958;21.888;2024-02-16T00:11:14;40.50;35.75;18.50
86027;PMS7003;76602;42.958;21.888;2024-02-16T00:13:39;49.50;40.50;25.75
86027;PMS7003;76602;42.958;21.888;2024-02-16T00:16:05;48.50;44.25;29.25
86027;PMS7003;76602;42.958;21.888;2024-02-16T00:18:31;41.50;38.75;28.00
86027;PMS7003;76602;42.958;21.888;2024-02-16T00:20:56;51.50;45.00;29.25
86027;PMS7003;76602;42.958;21.888;2024-02-16T00:23:22;50.75;45.00;30.00
86027;PMS7003;76602;42.958;21.888;2024-02-16T00:25:50;41.50;34.00;16.75
86027;PMS7003;76602;42.958;21.888;2024-02-16T00:28:15;51.75;44.25;29.00
86027;PMS7003;76602;42.958;21.888;2024-02-16T00:30:41;51.75;45.50;29.00
86027;PMS7003;76602;42.958;21.888;2024-02-16T00:33:07;57.00;49.00;30.50
86027;PMS7003;76602;42.958;21.888;2024-02-16T00:35:33;59.00;48.00;30.50
86027;PMS7003;76602;42.958;21.888;2024-02-16T00:38:01;59.25;47.50;30.00
86027;PMS7003;76602;42.958;21.888;2024-02-16T00:40:27;67.00;51.75;34.00
86027;PMS7003;76602;42.958;21.888;2024-02-16T00:42:52;61.00;45.50;30.50
86027;PMS7003;76602;42.958;21.888;2024-02-16T00:45:18;47.75;44.25;27.75
86027;PMS7003;76602;42.958;21.888;2024-02-16T00:47:44;58.00;48.00;32.00
86027;PMS7003;76602;42.958;21.888;2024-02-16T00:50:10;48.25;42.50;28.50
86027;PMS7003;76602;42.958;21.888;2024-02-16T00:52:36;53.75;46.50;33.00
86027;PMS7003;76602;42.958;21.888;2024-02-16T00:55:03;56.25;48.25;32.00
86027;PMS7003;76602;42.958;21.888;2024-02-16T00:57:29;66.00;51.75;34.00
86027;PMS7003;76602;42.958;21.888;2024-02-16T00:59:55;60.50;49.00;33.00
86027;PMS7003;76602;42.958;21.888;2024-02-16T01:02:20;59.75;47.50;31.25
86027;PMS7003;76602;42.958;21.888;2024-02-16T01:04:47;54.50;48.00;30.75
86027;PMS7003;76602;42.958;21.888;2024-02-16T01:07:15;52.50;44.25;28.00
86027;PMS7003;76602;42.958;21.888;2024-02-16T01:09:41;56.75;50.00;31.75
86027;PMS7003;76602;42.958;21.888;2024-02-16T01:12:06;86.00;66.75;42.00
86027;PMS7003;76602;42.958;21.888;2024-02-16T01:14:32;76.25;58.25;35.25
86027;PMS7003;76602;42.958;21.888;2024-02-16T01:16:58;60.50;52.50;35.00
86027;PMS7003;76602;42.958;21.888;2024-02-16T01:19:23;64.00;49.25;33.00
86027;PMS7003;76602;42.958;21.888;2024-02-16T01:21:49;60.75;50.50;33.00
86027;PMS7003;76602;42.958;21.888;2024-02-16T01:24:18;28.50;19.50;0.00
86027;PMS7003;76602;42.958;21.888;2024-02-16T01:26:45;59.50;46.75;30.25
86027;PMS7003;76602;42.958;21.888;2024-02-16T01:29:10;60.25;49.25;34.25
86027;PMS7003;76602;42.958;21.888;2024-02-16T01:31:36;80.00;63.00;39.00
86027;PMS7003;76602;42.958;21.888;2024-02-16T01:34:02;86.75;66.25;40.00
86027;PMS7003;76602;42.958;21.888;2024-02-16T01:36:27;71.75;57.75;36.50
86027;PMS7003;76602;42.958;21.888;2024-02-16T01:38:53;6.75;0.00;0.00
86027;PMS7003;76602;42.958;21.888;2024-02-16T01:41:19;67.00;51.50;33.25
86027;PMS7003;76602;42.958;21.888;2024-02-16T01:43:44;69.00;51.50;33.50
86027;PMS7003;76602;42.958;21.888;2024-02-16T01:46:10;60.75;50.25;29.75
86027;PMS7003;76602;42.958;21.888;2024-02-16T01:48:36;70.00;58.00;34.50
86027;PMS7003;76602;42.958;21.888;2024-02-16T01:51:04;72.75;57.75;36.50
86027;PMS7003;76602;42.958;21.888;2024-02-16T01:53:31;65.50;52.00;34.00
86027;PMS7003;76602;42.958;21.888;2024-02-16T01:55:57;72.75;54.00;34.50
86027;PMS7003;76602;42.958;21.888;2024-02-16T01:58:23;57.25;49.00;31.25
86027;PMS7003;76602;42.958;21.888;2024-02-16T02:00:49;56.75;50.00;33.00
86027;PMS7003;76602;42.958;21.888;2024-02-16T02:03:14;64.50;52.00;34.50
86027;PMS7003;76602;42.958;21.888;2024-02-16T02:05:43;68.00;53.75;35.00
86027;PMS7003;76602;42.958;21.888;2024-02-16T02:08:12;82.50;61.25;37.50
86027;PMS7003;76602;42.958;21.888;2024-02-16T02:10:41;64.75;51.75;33.00
86027;PMS7003;76602;42.958;21.888;2024-02-16T02:13:07;45.25;40.00;25.50
86027;PMS7003;76602;42.958;21.888;2024-02-16T02:15:33;43.50;41.25;28.00
86027;PMS7003;76602;42.958;21.888;2024-02-16T02:17:59;51.00;44.50;30.00
86027;PMS7003;76602;42.958;21.888;2024-02-16T02:20:25;56.00;47.25;31.25
86027;PMS7003;76602;42.958;21.888;2024-02-16T02:22:51;49.25;44.50;29.00
86027;PMS7003;76602;42.958;21.888;2024-02-16T02:25:16;49.25;39.50;28.00
86027;PMS7003;76602;42.958;21.888;2024-02-16T02:27:42;56.75;44.50;30.00
86027;PMS7003;76602;42.958;21.888;2024-02-16T02:30:08;40.75;38.00;26.25
86027;PMS7003;76602;42.958;21.888;2024-02-16T02:32:34;64.00;47.50;31.25
86027;PMS7003;76602;42.958;21.888;2024-02-16T02:35:00;44.50;39.75;25.50
86027;PMS7003;76602;42.958;21.888;2024-02-16T02:37:27;52.00;45.00;30.75
86027;PMS7003;76602;42.958;21.888;2024-02-16T02:39:52;54.00;41.50;29.50
86027;PMS7003;76602;42.958;21.888;2024-02-16T02:42:18;52.25;45.75;29.50
86027;PMS7003;76602;42.958;21.888;2024-02-16T02:44:44;54.75;48.75;31.00
86027;PMS7003;76602;42.958;21.888;2024-02-16T02:47:15;63.50;50.00;30.25
86027;PMS7003;76602;42.958;21.888;2024-02-16T02:49:42;56.50;47.50;30.25
86027;PMS7003;76602;42.958;21.888;2024-02-16T02:52:08;59.00;47.50;30.00
86027;PMS7003;76602;42.958;21.888;2024-02-16T02:54:34;50.50;45.00;30.00
86027;PMS7003;76602;42.958;21.888;2024-02-16T02:57:00;48.25;43.75;27.50
86027;PMS7003;76602;42.958;21.888;2024-02-16T02:59:27;48.25;39.50;27.25
86027;PMS7003;76602;42.958;21.888;2024-02-16T03:01:52;43.00;40.00;25.50
86027;PMS7003;76602;42.958;21.888;2024-02-16T03:04:18;47.25;40.50;25.75
86027;PMS7003;76602;42.958;21.888;2024-02-16T03:09:59;51.50;45.00;29.50
86027;PMS7003;76602;42.958;21.888;2024-02-16T03:12:25;41.00;37.50;24.25
86027;PMS7003;76602;42.958;21.888;2024-02-16T03:14:51;47.25;40.75;27.75
86027;PMS7003;76602;42.958;21.888;2024-02-16T03:17:17;53.00;43.50;29.00
86027;PMS7003;76602;42.958;21.888;2024-02-16T03:19:43;54.25;45.50;30.25
86027;PMS7003;76602;42.958;21.888;2024-02-16T03:22:08;46.75;40.25;28.00
86027;PMS7003;76602;42.958;21.888;2024-02-16T03:24:34;49.00;44.50;28.00
86027;PMS7003;76602;42.958;21.888;2024-02-16T03:27:26;50.50;45.00;27.25
86027;PMS7003;76602;42.958;21.888;2024-02-16T03:29:55;50.75;39.00;26.00
86027;PMS7003;76602;42.958;21.888;2024-02-16T03:32:24;52.00;42.00;30.00
86027;PMS7003;76602;42.958;21.888;2024-02-16T03:34:50;57.25;47.50;30.00
86027;PMS7003;76602;42.958;21.888;2024-02-16T03:37:27;51.00;41.50;25.00
86027;PMS7003;76602;42.958;21.888;2024-02-16T03:40:15;29.00;19.00;7.25
86027;PMS7003;76602;42.958;21.888;2024-02-16T03:45:52;58.50;48.50;30.00
86027;PMS7003;76602;42.958;21.888;2024-02-16T03:52:09;38.25;34.75;21.25
86027;PMS7003;76602;42.958;21.888;2024-02-16T03:54:39;58.00;47.50;31.50
86027;PMS7003;76602;42.958;21.888;2024-02-16T03:57:09;52.75;46.25;30.00
86027;PMS7003;76602;42.958;21.888;2024-02-16T03:59:37;61.50;43.50;30.00
86027;PMS7003;76602;42.958;21.888;2024-02-16T04:02:04;60.00;50.25;32.50
86027;PMS7003;76602;42.958;21.888;2024-02-16T04:04:39;54.50;45.75;28.50
86027;PMS7003;76602;42.958;21.888;2024-02-16T04:07:11;52.00;40.00;26.50
86027;PMS7003;76602;42.958;21.888;2024-02-16T04:09:55;47.50;42.75;27.00
86027;PMS7003;76602;42.958;21.888;2024-02-16T04:12:25;51.00;44.50;26.25
86027;PMS7003;76602;42.958;21.888;2024-02-16T04:15:17;44.75;42.00;25.00
86027;PMS7003;76602;42.958;21.888;2024-02-16T04:18:04;52.25;42.50;27.00
86027;PMS7003;76602;42.958;21.888;2024-02-16T04:20:36;48.50;45.25;28.00
86027;PMS7003;76602;42.958;21.888;2024-02-16T04:23:06;48.75;40.25;24.75
86027;PMS7003;76602;42.958;21.888;2024-02-16T04:25:32;50.00;44.00;27.75
86027;PMS7003;76602;42.958;21.888;2024-02-16T04:27:58;41.00;37.75;26.00
86027;PMS7003;76602;42.958;21.888;2024-02-16T04:30:24;38.75;36.00;25.75
86027;PMS7003;76602;42.958;21.888;2024-02-16T04:32:50;40.25;38.75;27.00
86027;PMS7003;76602;42.958;21.888;2024-02-16T04:35:16;46.00;40.00;26.50
86027;PMS7003;76602;42.958;21.888;2024-02-16T04:37:42;50.50;45.00;25.00
86027;PMS7003;76602;42.958;21.888;2024-02-16T04:40:08;54.75;45.00;29.00
86027;PMS7003;76602;42.958;21.888;2024-02-16T04:42:37;49.25;39.50;25.00
86027;PMS7003;76602;42.958;21.888;2024-02-16T04:45:10;46.25;44.25;27.25
86027;PMS7003;76602;42.958;21.888;2024-02-16T04:47:46;50.75;43.25;26.75
86027;PMS7003;76602;42.958;21.888;2024-02-16T04:50:11;40.25;35.50;24.00
86027;PMS7003;76602;42.958;21.888;2024-02-16T04:52:38;46.50;33.50;22.00
86027;PMS7003;76602;42.958;21.888;2024-02-16T04:55:05;47.75;35.75;22.50
86027;PMS7003;76602;42.958;21.888;2024-02-16T04:57:37;39.00;34.00;20.50
86027;PMS7003;76602;42.958;21.888;2024-02-16T05:00:03;38.75;30.50;20.50
86027;PMS7003;76602;42.958;21.888;2024-02-16T05:02:29;40.50;32.75;21.25
86027;PMS7003;76602;42.958;21.888;2024-02-16T05:04:55;34.50;29.00;21.00
86027;PMS7003;76602;42.958;21.888;2024-02-16T05:07:21;38.50;32.50;21.75
86027;PMS7003;76602;42.958;21.888;2024-02-16T05:09:49;37.50;33.00;23.00
86027;PMS7003;76602;42.958;21.888;2024-02-16T05:12:15;33.75;30.25;21.00
86027;PMS7003;76602;42.958;21.888;2024-02-16T05:14:47;31.75;28.50;17.00
86027;PMS7003;76602;42.958;21.888;2024-02-16T05:17:18;45.75;37.50;22.25
86027;PMS7003;76602;42.958;21.888;2024-02-16T05:19:44;36.00;31.00;24.00
86027;PMS7003;76602;42.958;21.888;2024-02-16T05:22:13;47.00;38.50;23.00
86027;PMS7003;76602;42.958;21.888;2024-02-16T05:24:44;39.25;34.25;22.00
86027;PMS7003;76602;42.958;21.888;2024-02-16T05:27:10;32.00;28.50;22.00
86027;PMS7003;76602;42.958;21.888;2024-02-16T05:29:39;40.50;34.75;21.75
86027;PMS7003;76602;42.958;21.888;2024-02-16T05:32:09;42.25;33.50;23.00
86027;PMS7003;76602;42.958;21.888;2024-02-16T05:34:41;38.75;33.50;22.00
86027;PMS7003;76602;42.958;21.888;2024-02-16T05:37:07;60.50;48.00;30.00
86027;PMS7003;76602;42.958;21.888;2024-02-16T05:39:35;53.25;45.00;29.00
86027;PMS7003;76602;42.958;21.888;2024-02-16T05:42:19;75.75;60.00;35.50
86027;PMS7003;76602;42.958;21.888;2024-02-16T05:44:48;55.50;46.75;29.00
86027;PMS7003;76602;42.958;21.888;2024-02-16T05:47:16;66.75;53.00;32.50
86027;PMS7003;76602;42.958;21.888;2024-02-16T05:49:42;59.50;48.00;32.50
86027;PMS7003;76602;42.958;21.888;2024-02-16T05:52:08;73.00;60.25;34.50
86027;PMS7003;76602;42.958;21.888;2024-02-16T05:54:46;47.50;42.75;26.00
86027;PMS7003;76602;42.958;21.888;2024-02-16T05:57:15;126.75;107.50;54.50
86027;PMS7003;76602;42.958;21.888;2024-02-16T06:00:19;54.50;45.25;26.50
86027;PMS7003;76602;42.958;21.888;2024-02-16T06:02:46;46.00;39.25;22.00
86027;PMS7003;76602;42.958;21.888;2024-02-16T06:05:22;45.75;37.00;25.00
86027;PMS7003;76602;42.958;21.888;2024-02-16T06:07:50;68.50;53.00;33.25
86027;PMS7003;76602;42.958;21.888;2024-02-16T06:10:16;56.50;48.25;27.50
86027;PMS7003;76602;42.958;21.888;2024-02-16T06:12:46;63.50;48.25;30.00
86027;PMS7003;76602;42.958;21.888;2024-02-16T06:15:13;78.75;63.00;39.00
86027;PMS7003;76602;42.958;21.888;2024-02-16T06:17:43;74.50;57.50;33.75
86027;PMS7003;76602;42.958;21.888;2024-02-16T06:20:11;79.50;58.25;37.25
86027;PMS7003;76602;42.958;21.888;2024-02-16T06:22:38;35.50;26.00;14.00
86027;PMS7003;76602;42.958;21.888;2024-02-16T06:25:07;51.75;39.25;27.00
86027;PMS7003;76602;42.958;21.888;2024-02-16T06:27:36;56.50;47.50;28.00
86027;PMS7003;76602;42.958;21.888;2024-02-16T06:30:03;61.25;44.00;27.75
86027;PMS7003;76602;42.958;21.888;2024-02-16T06:32:38;51.50;46.50;30.00
86027;PMS7003;76602;42.958;21.888;2024-02-16T06:35:56;61.25;48.50;30.25
86027;PMS7003;76602;42.958;21.888;2024-02-16T06:38:25;57.50;48.75;30.25
86027;PMS7003;76602;42.958;21.888;2024-02-16T06:40:53;46.75;39.75;30.00
86027;PMS7003;76602;42.958;21.888;2024-02-16T06:43:21;59.00;51.25;33.00
86027;PMS7003;76602;42.958;21.888;2024-02-16T06:46:18;65.25;50.00;33.00
86027;PMS7003;76602;42.958;21.888;2024-02-16T06:48:44;78.25;62.75;40.75
86027;PMS7003;76602;42.958;21.888;2024-02-16T06:51:10;93.25;72.00;45.50
86027;PMS7003;76602;42.958;21.888;2024-02-16T06:53:38;101.75;81.50;50.50
86027;PMS7003;76602;42.958;21.888;2024-02-16T06:56:04;103.00;75.75;49.00
86027;PMS7003;76602;42.958;21.888;2024-02-16T06:58:33;160.75;128.75;73.25
86027;PMS7003;76602;42.958;21.888;2024-02-16T07:01:01;165.50;139.00;79.00
86027;PMS7003;76602;42.958;21.888;2024-02-16T07:03:30;131.00;112.50;64.00
86027;PMS7003;76602;42.958;21.888;2024-02-16T07:06:02;104.00;79.50;49.00
86027;PMS7003;76602;42.958;21.888;2024-02-16T07:08:29;93.50;75.00;45.75
86027;PMS7003;76602;42.958;21.888;2024-02-16T07:11:15;67.25;55.00;35.00
86027;PMS7003;76602;42.958;21.888;2024-02-16T07:13:41;86.50;66.75;42.00
86027;PMS7003;76602;42.958;21.888;2024-02-16T07:16:08;83.25;61.00;39.50
86027;PMS7003;76602;42.958;21.888;2024-02-16T07:21:43;69.25;52.00;34.00
86027;PMS7003;76602;42.958;21.888;2024-02-16T07:24:09;74.75;60.25;40.00
86027;PMS7003;76602;42.958;21.888;2024-02-16T07:26:35;74.75;57.00;37.00
86027;PMS7003;76602;42.958;21.888;2024-02-16T07:29:01;91.00;68.25;45.50
86027;PMS7003;76602;42.958;21.888;2024-02-16T07:31:34;141.25;127.50;75.00
86027;PMS7003;76602;42.958;21.888;2024-02-16T07:34:02;56.00;48.00;33.00
86027;PMS7003;76602;42.958;21.888;2024-02-16T07:36:28;59.75;48.25;33.00
86027;PMS7003;76602;42.958;21.888;2024-02-16T07:38:59;64.50;50.00;32.75
86027;PMS7003;76602;42.958;21.888;2024-02-16T07:41:30;56.75;48.25;31.25
86027;PMS7003;76602;42.958;21.888;2024-02-16T07:43:58;74.25;58.75;39.00
86027;PMS7003;76602;42.958;21.888;2024-02-16T07:46:24;97.25;74.00;46.50
86027;PMS7003;76602;42.958;21.888;2024-02-16T07:48:51;152.75;128.50;75.75
86027;PMS7003;76602;42.958;21.888;2024-02-16T07:51:20;80.75;66.75;41.25
86027;PMS7003;76602;42.958;21.888;2024-02-16T07:53:47;84.25;65.50;41.00
86027;PMS7003;76602;42.958;21.888;2024-02-16T07:56:12;77.00;61.25;39.50
86027;PMS7003;76602;42.958;21.888;2024-02-16T07:58:43;83.00;65.75;42.00
86027;PMS7003;76602;42.958;21.888;2024-02-16T08:01:12;82.25;65.00;41.00
86027;PMS7003;76602;42.958;21.888;2024-02-16T08:03:40;84.75;64.00;42.25
86027;PMS7003;76602;42.958;21.888;2024-02-16T08:06:06;81.00;64.50;39.25
86027;PMS7003;76602;42.958;21.888;2024-02-16T08:08:33;84.25;66.50;43.25
86027;PMS7003;76602;42.958;21.888;2024-02-16T08:10:58;95.00;73.75;47.50
86027;PMS7003;76602;42.958;21.888;2024-02-16T08:13:24;141.00;130.00;81.00
86027;PMS7003;76602;42.958;21.888;2024-02-16T08:15:50;140.00;126.00;79.50
86027;PMS7003;76602;42.958;21.888;2024-02-16T08:18:17;80.00;63.25;41.00
86027;PMS7003;76602;42.958;21.888;2024-02-16T08:20:44;90.50;71.00;46.00
86027;PMS7003;76602;42.958;21.888;2024-02-16T08:23:11;79.75;62.50;40.25
86027;PMS7003;76602;42.958;21.888;2024-02-16T08:25:36;85.75;66.25;44.25
86027;PMS7003;76602;42.958;21.888;2024-02-16T08:28:02;75.75;60.00;38.75
86027;PMS7003;76602;42.958;21.888;2024-02-16T08:30:28;81.50;62.25;39.25
86027;PMS7003;76602;42.958;21.888;2024-02-16T08:32:53;64.00;47.75;31.75
86027;PMS7003;76602;42.958;21.888;2024-02-16T08:35:19;67.50;51.00;32.50
86027;PMS7003;76602;42.958;21.888;2024-02-16T08:37:45;73.50;59.50;38.00
86027;PMS7003;76602;42.958;21.888;2024-02-16T08:40:14;64.00;51.00;35.00
86027;PMS7003;76602;42.958;21.888;2024-02-16T08:42:42;62.75;52.00;35.50
86027;PMS7003;76602;42.958;21.888;2024-02-16T08:45:08;70.25;55.00;36.00
86027;PMS7003;76602;42.958;21.888;2024-02-16T08:47:34;56.25;47.50;31.25
86027;PMS7003;76602;42.958;21.888;2024-02-16T08:50:00;59.75;48.00;30.00
86027;PMS7003;76602;42.958;21.888;2024-02-16T08:52:26;61.75;48.50;31.25
86027;PMS7003;76602;42.958;21.888;2024-02-16T08:54:51;64.75;52.00;32.25
86027;PMS7003;76602;42.958;21.888;2024-02-16T08:57:17;62.00;49.50;31.75
86027;PMS7003;76602;42.958;21.888;2024-02-16T08:59:45;58.50;45.75;29.50
86027;PMS7003;76602;42.958;21.888;2024-02-16T09:02:11;65.50;51.75;32.50
86027;PMS7003;76602;42.958;21.888;2024-02-16T09:04:36;66.50;51.25;31.00
86027;PMS7003;76602;42.958;21.888;2024-02-16T09:07:02;63.25;50.50;30.25
86027;PMS7003;76602;42.958;21.888;2024-02-16T09:09:28;45.75;39.50;25.00
86027;PMS7003;76602;42.958;21.888;2024-02-16T09:11:53;51.25;42.25;28.00
86027;PMS7003;76602;42.958;21.888;2024-02-16T09:14:19;71.25;56.00;35.25
86027;PMS7003;76602;42.958;21.888;2024-02-16T09:16:45;60.50;46.50;30.50
86027;PMS7003;76602;42.958;21.888;2024-02-16T09:19:14;56.75;47.00;29.00
86027;PMS7003;76602;42.958;21.888;2024-02-16T09:21:39;52.50;44.25;29.00
86027;PMS7003;76602;42.958;21.888;2024-02-16T09:24:06;44.00;41.00;28.75
86027;PMS7003;76602;42.958;21.888;2024-02-16T09:26:35;47.75;40.25;26.00
86027;PMS7003;76602;42.958;21.888;2024-02-16T09:29:01;47.50;40.25;28.25
86027;PMS7003;76602;42.958;21.888;2024-02-16T09:31:27;51.75;44.00;29.50
86027;PMS7003;76602;42.958;21.888;2024-02-16T09:33:53;53.50;44.00;29.00
86027;PMS7003;76602;42.958;21.888;2024-02-16T09:36:19;55.25;42.75;28.25
86027;PMS7003;76602;42.958;21.888;2024-02-16T09:38:44;49.50;42.50;28.25
86027;PMS7003;76602;42.958;21.888;2024-02-16T09:41:10;40.25;37.50;24.00
86027;PMS7003;76602;42.958;21.888;2024-02-16T09:43:36;48.00;39.75;26.75
86027;PMS7003;76602;42.958;21.888;2024-02-16T09:46:04;43.50;37.25;25.50
86027;PMS7003;76602;42.958;21.888;2024-02-16T09:48:30;46.75;37.50;25.00
86027;PMS7003;76602;42.958;21.888;2024-02-16T09:50:56;41.75;36.00;24.50
86027;PMS7003;76602;42.958;21.888;2024-02-16T09:53:26;45.50;36.75;24.75
86027;PMS7003;76602;42.958;21.888;2024-02-16T09:55:54;53.75;41.00;27.00
86027;PMS7003;76602;42.958;21.888;2024-02-16T09:58:20;49.50;41.00;26.00
86027;PMS7003;76602;42.958;21.888;2024-02-16T10:03:26;35.50;35.00;23.00
86027;PMS7003;76602;42.958;21.888;2024-02-16T10:06:10;32.75;31.00;16.50
86027;PMS7003;76602;42.958;21.888;2024-02-16T10:08:51;37.00;33.50;23.00
86027;PMS7003;76602;42.958;21.888;2024-02-16T10:11:23;31.00;30.25;21.25
86027;PMS7003;76602;42.958;21.888;2024-02-16T10:16:24;37.25;32.75;21.00
86027;PMS7003;76602;42.958;21.888;2024-02-16T10:18:50;29.75;28.75;21.50
86027;PMS7003;76602;42.958;21.888;2024-02-16T10:21:27;41.50;35.00;22.00
86027;PMS7003;76602;42.958;21.888;2024-02-16T10:24:00;41.25;35.25;24.00
86027;PMS7003;76602;42.958;21.888;2024-02-16T10:26:38;41.75;35.00;24.00
86027;PMS7003;76602;42.958;21.888;2024-02-16T10:29:04;41.25;35.00;23.00
86027;PMS7003;76602;42.958;21.888;2024-02-16T10:31:31;39.75;34.50;22.75
86027;PMS7003;76602;42.958;21.888;2024-02-16T10:33:59;57.50;44.75;29.50
86027;PMS7003;76602;42.958;21.888;2024-02-16T10:36:25;75.75;63.75;42.00
86027;PMS7003;76602;42.958;21.888;2024-02-16T10:38:53;51.00;39.25;27.00
86027;PMS7003;76602;42.958;21.888;2024-02-16T10:41:21;38.75;33.25;23.00
86027;PMS7003;76602;42.958;21.888;2024-02-16T10:43:49;35.75;31.75;22.50
86027;PMS7003;76602;42.958;21.888;2024-02-16T10:46:15;34.00;30.50;21.00
86027;PMS7003;76602;42.958;21.888;2024-02-16T10:48:41;41.00;34.75;23.75
86027;PMS7003;76602;42.958;21.888;2024-02-16T10:51:07;46.75;36.75;26.00
86027;PMS7003;76602;42.958;21.888;2024-02-16T10:53:34;52.75;41.25;28.00
86027;PMS7003;76602;42.958;21.888;2024-02-16T10:56:00;47.50;38.50;26.00
86027;PMS7003;76602;42.958;21.888;2024-02-16T10:58:29;44.75;37.75;26.00
86027;PMS7003;76602;42.958;21.888;2024-02-16T11:00:56;43.25;38.00;24.25
86027;PMS7003;76602;42.958;21.888;2024-02-16T11:03:25;46.50;39.00;26.25
86027;PMS7003;76602;42.958;21.888;2024-02-16T11:05:53;50.25;40.75;28.25
86027;PMS7003;76602;42.958;21.888;2024-02-16T11:08:19;49.00;39.00;28.00
86027;PMS7003;76602;42.958;21.888;2024-02-16T11:10:56;47.25;36.50;24.00
86027;PMS7003;76602;42.958;21.888;2024-02-16T11:13:23;46.50;38.00;25.50
86027;PMS7003;76602;42.958;21.888;2024-02-16T11:15:56;43.00;37.00;25.50
86027;PMS7003;76602;42.958;21.888;2024-02-16T11:18:27;45.25;37.00;23.75
86027;PMS7003;76602;42.958;21.888;2024-02-16T11:20:53;38.50;34.25;22.25
86027;PMS7003;76602;42.958;21.888;2024-02-16T11:23:25;50.00;40.25;26.00
86027;PMS7003;76602;42.958;21.888;2024-02-16T11:25:54;44.50;34.75;21.00
86027;PMS7003;76602;42.958;21.888;2024-02-16T11:28:25;39.75;35.25;23.00
86027;PMS7003;76602;42.958;21.888;2024-02-16T11:30:51;43.75;35.00;23.75
86027;PMS7003;76602;42.958;21.888;2024-02-16T11:33:17;42.75;35.00;24.00
86027;PMS7003;76602;42.958;21.888;2024-02-16T11:35:51;46.25;37.25;25.25
86027;PMS7003;76602;42.958;21.888;2024-02-16T11:38:18;40.75;34.75;22.50
86027;PMS7003;76602;42.958;21.888;2024-02-16T11:40:52;32.00;31.00;21.50
86027;PMS7003;76602;42.958;21.888;2024-02-16T11:43:25;36.25;31.50;21.25
86027;PMS7003;76602;42.958;21.888;2024-02-16T11:45:51;33.75;30.25;21.75
86027;PMS7003;76602;42.958;21.888;2024-02-16T11:48:24;31.00;29.75;20.00
86027;PMS7003;76602;42.958;21.888;2024-02-16T11:51:03;30.75;29.25;19.25
86027;PMS7003;76602;42.958;21.888;2024-02-16T11:53:30;32.00;27.25;18.00
86027;PMS7003;76602;42.958;21.888;2024-02-16T11:55:57;31.50;30.75;20.50
86027;PMS7003;76602;42.958;21.888;2024-02-16T11:58:23;37.00;32.00;21.25
86027;PMS7003;76602;42.958;21.888;2024-02-16T12:00:50;33.75;29.75;19.25
86027;PMS7003;76602;42.958;21.888;2024-02-16T12:03:23;29.00;28.25;19.25
86027;PMS7003;76602;42.958;21.888;2024-02-16T12:05:53;35.00;30.25;21.25
86027;PMS7003;76602;42.958;21.888;2024-02-16T12:08:20;26.75;24.25;17.50
86027;PMS7003;76602;42.958;21.888;2024-02-16T12:10:47;23.25;22.75;18.00
86027;PMS7003;76602;42.958;21.888;2024-02-16T12:13:15;32.50;29.00;19.00
86027;PMS7003;76602;42.958;21.888;2024-02-16T12:15:43;29.50;27.75;19.75
86027;PMS7003;76602;42.958;21.888;2024-02-16T12:18:10;31.75;28.00;19.00
86027;PMS7003;76602;42.958;21.888;2024-02-16T12:20:36;27.25;26.00;17.25
86027;PMS7003;76602;42.958;21.888;2024-02-16T12:23:11;26.25;25.50;19.00
86027;PMS7003;76602;42.958;21.888;2024-02-16T12:25:38;33.25;29.75;21.75
86027;PMS7003;76602;42.958;21.888;2024-02-16T12:28:03;24.75;23.00;17.00
86027;PMS7003;76602;42.958;21.888;2024-02-16T12:30:30;27.75;24.75;18.50
86027;PMS7003;76602;42.958;21.888;2024-02-16T12:32:56;27.25;26.25;19.00
86027;PMS7003;76602;42.958;21.888;2024-02-16T12:35:21;31.25;24.50;17.75
86027;PMS7003;76602;42.958;21.888;2024-02-16T12:37:47;14.75;14.00;8.25
86027;PMS7003;76602;42.958;21.888;2024-02-16T12:40:12;23.00;23.00;17.25
86027;PMS7003;76602;42.958;21.888;2024-02-16T12:42:39;28.00;26.00;18.00
86027;PMS7003;76602;42.958;21.888;2024-02-16T12:45:04;24.50;24.50;17.25
86027;PMS7003;76602;42.958;21.888;2024-02-16T12:47:30;25.25;23.25;16.00
86027;PMS7003;76602;42.958;21.888;2024-02-16T12:49:56;22.00;22.00;15.00
86027;PMS7003;76602;42.958;21.888;2024-02-16T12:52:24;24.50;21.75;16.75
86027;PMS7003;76602;42.958;21.888;2024-02-16T12:54:51;20.50;20.50;16.00
86027;PMS7003;76602;42.958;21.888;2024-02-16T12:57:17;22.00;19.25;14.50
86027;PMS7003;76602;42.958;21.888;2024-02-16T12:59:43;33.75;31.25;21.75
86027;PMS7003;76602;42.958;21.888;2024-02-16T13:02:08;22.50;21.25;16.00
86027;PMS7003;76602;42.958;21.888;2024-02-16T13:04:34;22.25;21.25;13.75
86027;PMS7003;76602;42.958;21.888;2024-02-16T13:07:00;26.00;24.75;18.75
86027;PMS7003;76602;42.958;21.888;2024-02-16T13:09:25;19.25;19.00;14.25
86027;PMS7003;76602;42.958;21.888;2024-02-16T13:11:51;21.25;20.75;16.00
86027;PMS7003;76602;42.958;21.888;2024-02-16T13:14:20;26.00;21.25;13.75
86027;PMS7003;76602;42.958;21.888;2024-02-16T13:16:46;21.25;20.50;14.00
86027;PMS7003;76602;42.958;21.888;2024-02-16T13:19:15;32.00;28.50;20.00
86027;PMS7003;76602;42.958;21.888;2024-02-16T13:21:43;29.00;26.00;18.25
86027;PMS7003;76602;42.958;21.888;2024-02-16T13:24:09;22.25;21.00;17.00
86027;PMS7003;76602;42.958;21.888;2024-02-16T13:26:35;24.00;22.50;15.50
86027;PMS7003;76602;42.958;21.888;2024-02-16T13:29:00;23.50;21.25;15.25
86027;PMS7003;76602;42.958;21.888;2024-02-16T13:31:26;30.50;27.00;20.00
86027;PMS7003;76602;42.958;21.888;2024-02-16T13:33:52;23.25;21.00;16.00
86027;PMS7003;76602;42.958;21.888;2024-02-16T13:36:18;27.00;26.00;18.00
86027;PMS7003;76602;42.958;21.888;2024-02-16T13:38:44;25.25;24.00;17.75
86027;PMS7003;76602;42.958;21.888;2024-02-16T13:41:09;25.00;25.00;18.00
86027;PMS7003;76602;42.958;21.888;2024-02-16T13:43:35;24.25;24.00;17.50
86027;PMS7003;76602;42.958;21.888;2024-02-16T13:46:01;24.75;23.00;17.50
86027;PMS7003;76602;42.958;21.888;2024-02-16T13:48:26;24.75;23.50;17.25
86027;PMS7003;76602;42.958;21.888;2024-02-16T13:50:53;27.00;24.75;18.00
86027;PMS7003;76602;42.958;21.888;2024-02-16T13:53:19;22.00;21.00;16.25
86027;PMS7003;76602;42.958;21.888;2024-02-16T13:55:48;17.75;17.75;12.00
86027;PMS7003;76602;42.958;21.888;2024-02-16T13:58:14;22.00;21.75;17.25